sensor_id;sensor_type;location;lat;lon;timestamp;temperature;humidity
18577;DHT22;9418;52.694;13.294;2022-09-29T00:01:39;8.60;60.40
18577;DHT22;9418;52.694;13.294;2022-09-29T00:04:07;8.60;62.20
18577;DHT22;9418;52.694;13.294;2022-09-29T00:06:34;8.60;62.20
18577;DHT22;9418;52.694;13.294;2022-09-29T00:09:00;8.50;64.80
18577;DHT22;9418;52.694;13.294;2022-09-29T00:11:27;8.50;64.50
18577;DHT22;9418;52.694;13.294;2022-09-29T00:13:53;8.50;65.10
18577;DHT22;9418;52.694;13.294;2022-09-29T00:16:20;8.40;66.10
18577;DHT22;9418;52.694;13.294;2022-09-29T00:18:47;8.40;66.80
18577;DHT22;9418;52.694;13.294;2022-09-29T00:21:16;8.40;66.90
18577;DHT22;9418;52.694;13.294;2022-09-29T00:23:45;8.40;67.20
18577;DHT22;9418;52.694;13.294;2022-09-29T00:26:13;8.40;67.20
18577;DHT22;9418;52.694;13.294;2022-09-29T00:28:44;8.30;68.40
18577;DHT22;9418;52.694;13.294;2022-09-29T00:31:10;8.40;65.60
18577;DHT22;9418;52.694;13.294;2022-09-29T00:33:37;8.40;67.50
18577;DHT22;9418;52.694;13.294;2022-09-29T00:36:07;8.30;67.50
18577;DHT22;9418;52.694;13.294;2022-09-29T00:38:36;8.30;69.70
18577;DHT22;9418;52.694;13.294;2022-09-29T00:41:03;8.30;70.90
18577;DHT22;9418;52.694;13.294;2022-09-29T00:43:52;8.20;71.20
18577;DHT22;9418;52.694;13.294;2022-09-29T00:46:27;8.20;71.30
18577;DHT22;9418;52.694;13.294;2022-09-29T00:49:00;8.10;73.30
18577;DHT22;9418;52.694;13.294;2022-09-29T00:51:29;8.10;70.30
18577;DHT22;9418;52.694;13.294;2022-09-29T00:53:58;8.10;72.00
18577;DHT22;9418;52.694;13.294;2022-09-29T00:56:27;8.10;71.30
18577;DHT22;9418;52.694;13.294;2022-09-29T00:58:56;8.00;73.30
18577;DHT22;9418;52.694;13.294;2022-09-29T01:01:28;8.10;73.50
18577;DHT22;9418;52.694;13.294;2022-09-29T01:04:00;8.00;71.80
18577;DHT22;9418;52.694;13.294;2022-09-29T01:06:30;8.00;71.00
18577;DHT22;9418;52.694;13.294;2022-09-29T01:09:01;8.00;70.90
18577;DHT22;9418;52.694;13.294;2022-09-29T01:11:29;8.00;73.60
18577;DHT22;9418;52.694;13.294;2022-09-29T01:13:57;7.90;72.50
18577;DHT22;9418;52.694;13.294;2022-09-29T01:16:28;7.90;72.60
18577;DHT22;9418;52.694;13.294;2022-09-29T01:18:55;7.90;73.00
18577;DHT22;9418;52.694;13.294;2022-09-29T01:21:29;7.80;74.90
18577;DHT22;9418;52.694;13.294;2022-09-29T01:27:10;7.80;78.60
18577;DHT22;9418;52.694;13.294;2022-09-29T01:29:53;7.70;82.60
18577;DHT22;9418;52.694;13.294;2022-09-29T01:32:28;7.70;82.50
18577;DHT22;9418;52.694;13.294;2022-09-29T01:35:05;7.70;85.80
18577;DHT22;9418;52.694;13.294;2022-09-29T01:37:45;7.60;90.10
18577;DHT22;9418;52.694;13.294;2022-09-29T01:40:15;7.60;95.30
18577;DHT22;9418;52.694;13.294;2022-09-29T01:42:50;7.50;97.40
18577;DHT22;9418;52.694;13.294;2022-09-29T01:45:25;7.40;99.90
18577;DHT22;9418;52.694;13.294;2022-09-29T01:47:55;7.40;96.40
18577;DHT22;9418;52.694;13.294;2022-09-29T01:50:28;7.40;99.90
18577;DHT22;9418;52.694;13.294;2022-09-29T01:53:00;7.40;99.90
18577;DHT22;9418;52.694;13.294;2022-09-29T01:55:31;7.40;99.90
18577;DHT22;9418;52.694;13.294;2022-09-29T01:58:01;7.30;99.90
18577;DHT22;9418;52.694;13.294;2022-09-29T02:00:35;7.40;99.20
18577;DHT22;9418;52.694;13.294;2022-09-29T02:03:09;7.40;96.50
18577;DHT22;9418;52.694;13.294;2022-09-29T02:05:43;7.30;97.60
18577;DHT22;9418;52.694;13.294;2022-09-29T02:08:13;7.40;88.90
18577;DHT22;9418;52.694;13.294;2022-09-29T02:10:46;7.40;90.50
18577;DHT22;9418;52.694;13.294;2022-09-29T02:13:14;7.40;87.60
18577;DHT22;9418;52.694;13.294;2022-09-29T02:15:45;7.40;88.20
18577;DHT22;9418;52.694;13.294;2022-09-29T02:18:16;7.40;86.40
18577;DHT22;9418;52.694;13.294;2022-09-29T02:20:45;7.40;84.70
18577;DHT22;9418;52.694;13.294;2022-09-29T02:23:12;7.40;90.00
18577;DHT22;9418;52.694;13.294;2022-09-29T02:25:39;7.40;89.60
18577;DHT22;9418;52.694;13.294;2022-09-29T02:28:06;7.30;90.70
18577;DHT22;9418;52.694;13.294;2022-09-29T02:30:33;7.40;88.90
18577;DHT22;9418;52.694;13.294;2022-09-29T02:33:00;7.40;88.90
18577;DHT22;9418;52.694;13.294;2022-09-29T02:35:34;7.40;88.60
18577;DHT22;9418;52.694;13.294;2022-09-29T02:38:09;7.40;87.80
18577;DHT22;9418;52.694;13.294;2022-09-29T02:40:44;7.40;86.20
18577;DHT22;9418;52.694;13.294;2022-09-29T02:43:27;7.50;85.10
18577;DHT22;9418;52.694;13.294;2022-09-29T02:46:06;7.50;86.40
18577;DHT22;9418;52.694;13.294;2022-09-29T02:48:48;7.50;87.40
18577;DHT22;9418;52.694;13.294;2022-09-29T02:51:24;7.50;82.70
18577;DHT22;9418;52.694;13.294;2022-09-29T02:54:01;7.50;80.70
18577;DHT22;9418;52.694;13.294;2022-09-29T02:56:37;7.60;77.80
18577;DHT22;9418;52.694;13.294;2022-09-29T02:59:10;7.50;79.60
18577;DHT22;9418;52.694;13.294;2022-09-29T03:01:46;7.50;80.30
18577;DHT22;9418;52.694;13.294;2022-09-29T03:04:14;7.60;80.70
18577;DHT22;9418;52.694;13.294;2022-09-29T03:06:42;7.50;81.10
18577;DHT22;9418;52.694;13.294;2022-09-29T03:09:08;7.60;79.60
18577;DHT22;9418;52.694;13.294;2022-09-29T03:11:35;7.60;78.30
18577;DHT22;9418;52.694;13.294;2022-09-29T03:14:02;7.60;78.50
18577;DHT22;9418;52.694;13.294;2022-09-29T03:16:28;7.70;78.00
18577;DHT22;9418;52.694;13.294;2022-09-29T03:18:55;7.70;76.40
18577;DHT22;9418;52.694;13.294;2022-09-29T03:21:22;7.70;76.70
18577;DHT22;9418;52.694;13.294;2022-09-29T03:23:50;7.70;75.90
18577;DHT22;9418;52.694;13.294;2022-09-29T03:26:17;7.70;75.70
18577;DHT22;9418;52.694;13.294;2022-09-29T03:28:44;7.70;76.40
18577;DHT22;9418;52.694;13.294;2022-09-29T03:31:11;7.70;72.50
18577;DHT22;9418;52.694;13.294;2022-09-29T03:33:38;7.80;71.00
18577;DHT22;9418;52.694;13.294;2022-09-29T03:36:05;7.80;71.60
18577;DHT22;9418;52.694;13.294;2022-09-29T03:38:33;7.80;70.90
18577;DHT22;9418;52.694;13.294;2022-09-29T03:41:01;7.80;69.60
18577;DHT22;9418;52.694;13.294;2022-09-29T03:43:28;7.80;68.10
18577;DHT22;9418;52.694;13.294;2022-09-29T03:45:55;7.90;68.00
18577;DHT22;9418;52.694;13.294;2022-09-29T03:48:22;7.90;67.30
18577;DHT22;9418;52.694;13.294;2022-09-29T03:50:50;7.90;65.80
18577;DHT22;9418;52.694;13.294;2022-09-29T03:53:18;7.90;65.90
18577;DHT22;9418;52.694;13.294;2022-09-29T03:55:45;7.90;64.00
18577;DHT22;9418;52.694;13.294;2022-09-29T03:58:13;8.00;63.80
18577;DHT22;9418;52.694;13.294;2022-09-29T04:00:40;8.00;63.30
18577;DHT22;9418;52.694;13.294;2022-09-29T04:03:07;8.00;63.10
18577;DHT22;9418;52.694;13.294;2022-09-29T04:05:34;8.00;64.50
18577;DHT22;9418;52.694;13.294;2022-09-29T04:08:03;8.00;65.20
18577;DHT22;9418;52.694;13.294;2022-09-29T04:10:29;8.00;64.30
18577;DHT22;9418;52.694;13.294;2022-09-29T04:12:56;8.10;64.10
18577;DHT22;9418;52.694;13.294;2022-09-29T04:15:24;8.00;64.60
18577;DHT22;9418;52.694;13.294;2022-09-29T04:17:50;8.00;64.10
18577;DHT22;9418;52.694;13.294;2022-09-29T04:20:17;8.10;63.90
18577;DHT22;9418;52.694;13.294;2022-09-29T04:22:44;8.10;63.20
18577;DHT22;9418;52.694;13.294;2022-09-29T04:25:10;8.10;62.60
18577;DHT22;9418;52.694;13.294;2022-09-29T04:27:37;8.10;60.90
18577;DHT22;9418;52.694;13.294;2022-09-29T04:30:05;8.10;60.50
18577;DHT22;9418;52.694;13.294;2022-09-29T04:32:33;8.10;61.50
18577;DHT22;9418;52.694;13.294;2022-09-29T04:34:59;8.10;62.90
18577;DHT22;9418;52.694;13.294;2022-09-29T04:37:26;8.10;61.70
18577;DHT22;9418;52.694;13.294;2022-09-29T04:39:53;8.10;62.00
18577;DHT22;9418;52.694;13.294;2022-09-29T04:42:20;8.10;61.70
18577;DHT22;9418;52.694;13.294;2022-09-29T04:44:47;8.10;60.80
18577;DHT22;9418;52.694;13.294;2022-09-29T04:47:14;8.10;59.20
18577;DHT22;9418;52.694;13.294;2022-09-29T04:49:42;8.10;59.60
18577;DHT22;9418;52.694;13.294;2022-09-29T04:52:10;8.20;59.30
18577;DHT22;9418;52.694;13.294;2022-09-29T04:54:37;8.10;60.30
18577;DHT22;9418;52.694;13.294;2022-09-29T04:57:04;8.20;58.80
18577;DHT22;9418;52.694;13.294;2022-09-29T04:59:31;8.20;58.50
18577;DHT22;9418;52.694;13.294;2022-09-29T05:01:58;8.20;60.00
18577;DHT22;9418;52.694;13.294;2022-09-29T05:04:25;8.10;61.00
18577;DHT22;9418;52.694;13.294;2022-09-29T05:06:52;8.20;60.20
18577;DHT22;9418;52.694;13.294;2022-09-29T05:09:19;8.20;60.20
18577;DHT22;9418;52.694;13.294;2022-09-29T05:11:46;8.20;60.00
18577;DHT22;9418;52.694;13.294;2022-09-29T05:14:12;8.20;58.20
18577;DHT22;9418;52.694;13.294;2022-09-29T05:16:39;8.20;58.60
18577;DHT22;9418;52.694;13.294;2022-09-29T05:19:06;8.20;57.80
18577;DHT22;9418;52.694;13.294;2022-09-29T05:21:32;8.20;57.50
18577;DHT22;9418;52.694;13.294;2022-09-29T05:24:00;8.30;58.40
18577;DHT22;9418;52.694;13.294;2022-09-29T05:26:27;8.30;57.00
18577;DHT22;9418;52.694;13.294;2022-09-29T05:28:54;8.30;56.90
18577;DHT22;9418;52.694;13.294;2022-09-29T05:31:20;8.30;55.20
18577;DHT22;9418;52.694;13.294;2022-09-29T05:33:47;8.40;54.70
18577;DHT22;9418;52.694;13.294;2022-09-29T05:36:13;8.40;55.20
18577;DHT22;9418;52.694;13.294;2022-09-29T05:38:40;8.40;54.90
18577;DHT22;9418;52.694;13.294;2022-09-29T05:41:09;8.40;55.80
18577;DHT22;9418;52.694;13.294;2022-09-29T05:43:36;8.40;54.40
18577;DHT22;9418;52.694;13.294;2022-09-29T05:46:05;8.50;56.80
18577;DHT22;9418;52.694;13.294;2022-09-29T05:48:33;8.50;58.00
18577;DHT22;9418;52.694;13.294;2022-09-29T05:51:06;8.50;57.70
18577;DHT22;9418;52.694;13.294;2022-09-29T05:53:33;8.50;57.90
18577;DHT22;9418;52.694;13.294;2022-09-29T05:56:03;8.50;56.10
18577;DHT22;9418;52.694;13.294;2022-09-29T05:58:31;8.50;56.10
18577;DHT22;9418;52.694;13.294;2022-09-29T06:00:58;8.50;55.10
18577;DHT22;9418;52.694;13.294;2022-09-29T06:03:24;8.50;55.90
18577;DHT22;9418;52.694;13.294;2022-09-29T06:05:51;8.50;57.30
18577;DHT22;9418;52.694;13.294;2022-09-29T06:08:18;8.50;57.20
18577;DHT22;9418;52.694;13.294;2022-09-29T06:10:44;8.50;57.90
18577;DHT22;9418;52.694;13.294;2022-09-29T06:13:11;8.60;57.70
18577;DHT22;9418;52.694;13.294;2022-09-29T06:15:38;8.50;58.80
18577;DHT22;9418;52.694;13.294;2022-09-29T06:18:05;8.60;57.50
18577;DHT22;9418;52.694;13.294;2022-09-29T06:20:32;8.60;58.70
18577;DHT22;9418;52.694;13.294;2022-09-29T06:23:02;8.60;58.10
18577;DHT22;9418;52.694;13.294;2022-09-29T06:25:29;8.60;56.80
18577;DHT22;9418;52.694;13.294;2022-09-29T06:27:55;8.60;56.20
18577;DHT22;9418;52.694;13.294;2022-09-29T06:30:22;8.70;55.70
18577;DHT22;9418;52.694;13.294;2022-09-29T06:32:50;8.70;55.00
18577;DHT22;9418;52.694;13.294;2022-09-29T06:35:16;8.70;54.60
18577;DHT22;9418;52.694;13.294;2022-09-29T06:38:01;8.80;55.30
18577;DHT22;9418;52.694;13.294;2022-09-29T06:40:28;8.70;56.30
18577;DHT22;9418;52.694;13.294;2022-09-29T06:42:54;8.80;57.00
18577;DHT22;9418;52.694;13.294;2022-09-29T06:45:21;8.80;57.30
18577;DHT22;9418;52.694;13.294;2022-09-29T06:47:47;8.80;56.70
18577;DHT22;9418;52.694;13.294;2022-09-29T06:50:15;8.80;57.10
18577;DHT22;9418;52.694;13.294;2022-09-29T06:52:42;8.90;55.70
18577;DHT22;9418;52.694;13.294;2022-09-29T06:55:08;8.90;54.90
18577;DHT22;9418;52.694;13.294;2022-09-29T06:57:35;8.90;53.50
18577;DHT22;9418;52.694;13.294;2022-09-29T07:00:03;8.90;53.20
18577;DHT22;9418;52.694;13.294;2022-09-29T07:02:30;9.00;53.00
18577;DHT22;9418;52.694;13.294;2022-09-29T07:04:57;9.00;55.80
18577;DHT22;9418;52.694;13.294;2022-09-29T07:07:25;9.00;55.50
18577;DHT22;9418;52.694;13.294;2022-09-29T07:09:51;9.00;56.10
18577;DHT22;9418;52.694;13.294;2022-09-29T07:12:18;9.00;57.50
18577;DHT22;9418;52.694;13.294;2022-09-29T07:14:45;9.00;57.90
18577;DHT22;9418;52.694;13.294;2022-09-29T07:17:12;9.00;57.50
18577;DHT22;9418;52.694;13.294;2022-09-29T07:19:40;9.00;58.40
18577;DHT22;9418;52.694;13.294;2022-09-29T07:22:06;9.10;57.00
18577;DHT22;9418;52.694;13.294;2022-09-29T07:24:35;9.10;59.20
18577;DHT22;9418;52.694;13.294;2022-09-29T07:27:02;9.20;58.70
18577;DHT22;9418;52.694;13.294;2022-09-29T07:29:28;9.20;60.90
18577;DHT22;9418;52.694;13.294;2022-09-29T07:31:58;9.20;59.70
18577;DHT22;9418;52.694;13.294;2022-09-29T07:34:24;9.30;60.30
18577;DHT22;9418;52.694;13.294;2022-09-29T07:36:51;9.30;61.80
18577;DHT22;9418;52.694;13.294;2022-09-29T07:39:19;9.30;59.20
18577;DHT22;9418;52.694;13.294;2022-09-29T07:41:48;9.40;59.20
18577;DHT22;9418;52.694;13.294;2022-09-29T07:44:14;9.40;59.80
18577;DHT22;9418;52.694;13.294;2022-09-29T07:46:41;9.40;64.10
18577;DHT22;9418;52.694;13.294;2022-09-29T07:49:08;9.40;66.40
18577;DHT22;9418;52.694;13.294;2022-09-29T07:51:34;9.40;64.50
18577;DHT22;9418;52.694;13.294;2022-09-29T07:54:03;9.40;64.80
18577;DHT22;9418;52.694;13.294;2022-09-29T07:56:30;9.50;64.10
18577;DHT22;9418;52.694;13.294;2022-09-29T07:58:58;9.50;65.70
18577;DHT22;9418;52.694;13.294;2022-09-29T08:01:26;9.50;69.80
18577;DHT22;9418;52.694;13.294;2022-09-29T08:03:54;9.50;69.40
18577;DHT22;9418;52.694;13.294;2022-09-29T08:06:21;9.50;70.20
18577;DHT22;9418;52.694;13.294;2022-09-29T08:08:48;9.50;70.90
18577;DHT22;9418;52.694;13.294;2022-09-29T08:11:17;9.50;73.30
18577;DHT22;9418;52.694;13.294;2022-09-29T08:13:44;9.50;71.70
18577;DHT22;9418;52.694;13.294;2022-09-29T08:16:13;9.60;71.40
18577;DHT22;9418;52.694;13.294;2022-09-29T08:18:41;9.60;72.20
18577;DHT22;9418;52.694;13.294;2022-09-29T08:21:09;9.70;72.40
18577;DHT22;9418;52.694;13.294;2022-09-29T08:23:37;9.70;75.80
18577;DHT22;9418;52.694;13.294;2022-09-29T08:26:06;9.70;78.00
18577;DHT22;9418;52.694;13.294;2022-09-29T08:28:35;9.70;79.80
18577;DHT22;9418;52.694;13.294;2022-09-29T08:31:02;9.80;81.20
18577;DHT22;9418;52.694;13.294;2022-09-29T08:33:30;9.80;81.30
18577;DHT22;9418;52.694;13.294;2022-09-29T08:35:59;9.90;84.30
18577;DHT22;9418;52.694;13.294;2022-09-29T08:38:28;9.90;85.10
18577;DHT22;9418;52.694;13.294;2022-09-29T08:40:56;9.90;89.30
18577;DHT22;9418;52.694;13.294;2022-09-29T08:43:27;9.90;93.80
18577;DHT22;9418;52.694;13.294;2022-09-29T08:45:59;9.90;96.00
18577;DHT22;9418;52.694;13.294;2022-09-29T08:48:31;9.90;98.50
18577;DHT22;9418;52.694;13.294;2022-09-29T08:51:03;9.90;99.90
18577;DHT22;9418;52.694;13.294;2022-09-29T08:53:33;10.00;99.90
18577;DHT22;9418;52.694;13.294;2022-09-29T08:56:02;10.00;99.90
18577;DHT22;9418;52.694;13.294;2022-09-29T08:58:30;10.00;99.90
18577;DHT22;9418;52.694;13.294;2022-09-29T09:01:06;10.00;99.90
18577;DHT22;9418;52.694;13.294;2022-09-29T09:04:00;10.00;99.90
18577;DHT22;9418;52.694;13.294;2022-09-29T09:06:35;10.00;99.90
18577;DHT22;9418;52.694;13.294;2022-09-29T09:09:17;10.10;99.90
18577;DHT22;9418;52.694;13.294;2022-09-29T09:11:55;10.10;99.90
18577;DHT22;9418;52.694;13.294;2022-09-29T09:14:36;10.10;99.90
18577;DHT22;9418;52.694;13.294;2022-09-29T09:17:17;10.20;99.90
18577;DHT22;9418;52.694;13.294;2022-09-29T09:19:57;10.30;99.90
18577;DHT22;9418;52.694;13.294;2022-09-29T09:22:31;10.30;99.90
18577;DHT22;9418;52.694;13.294;2022-09-29T09:25:03;10.50;99.90
18577;DHT22;9418;52.694;13.294;2022-09-29T09:27:36;10.40;99.90
18577;DHT22;9418;52.694;13.294;2022-09-29T09:30:12;10.40;99.90
18577;DHT22;9418;52.694;13.294;2022-09-29T09:32:43;10.60;99.90
18577;DHT22;9418;52.694;13.294;2022-09-29T09:35:24;10.50;99.90
18577;DHT22;9418;52.694;13.294;2022-09-29T09:37:55;10.60;99.90
18577;DHT22;9418;52.694;13.294;2022-09-29T09:40:25;10.70;99.90
18577;DHT22;9418;52.694;13.294;2022-09-29T09:43:10;10.90;99.90
18577;DHT22;9418;52.694;13.294;2022-09-29T09:45:42;11.00;93.50
18577;DHT22;9418;52.694;13.294;2022-09-29T09:48:17;11.10;36.10
18577;DHT22;9418;52.694;13.294;2022-09-29T09:50:46;11.20;49.10
18577;DHT22;9418;52.694;13.294;2022-09-29T09:53:18;11.10;65.20
18577;DHT22;9418;52.694;13.294;2022-09-29T09:55:52;11.10;67.60
18577;DHT22;9418;52.694;13.294;2022-09-29T09:58:37;11.10;68.50
18577;DHT22;9418;52.694;13.294;2022-09-29T10:01:11;11.20;73.10
18577;DHT22;9418;52.694;13.294;2022-09-29T10:03:37;11.20;65.40
18577;DHT22;9418;52.694;13.294;2022-09-29T10:06:06;11.10;64.40
18577;DHT22;9418;52.694;13.294;2022-09-29T10:08:34;11.10;70.10
18577;DHT22;9418;52.694;13.294;2022-09-29T10:11:15;11.10;66.00
18577;DHT22;9418;52.694;13.294;2022-09-29T10:13:45;11.20;70.30
18577;DHT22;9418;52.694;13.294;2022-09-29T10:16:15;11.30;59.80
18577;DHT22;9418;52.694;13.294;2022-09-29T10:18:43;11.50;56.20
18577;DHT22;9418;52.694;13.294;2022-09-29T10:21:21;11.70;84.10
18577;DHT22;9418;52.694;13.294;2022-09-29T10:23:52;11.90;99.30
18577;DHT22;9418;52.694;13.294;2022-09-29T10:26:21;12.00;99.90
18577;DHT22;9418;52.694;13.294;2022-09-29T10:28:52;12.20;99.90
18577;DHT22;9418;52.694;13.294;2022-09-29T10:31:26;12.30;99.90
18577;DHT22;9418;52.694;13.294;2022-09-29T10:33:57;12.50;99.90
18577;DHT22;9418;52.694;13.294;2022-09-29T10:36:28;12.60;99.90
18577;DHT22;9418;52.694;13.294;2022-09-29T10:38:56;12.50;99.90
18577;DHT22;9418;52.694;13.294;2022-09-29T10:41:23;12.40;99.90
18577;DHT22;9418;52.694;13.294;2022-09-29T10:43:50;12.30;99.90
18577;DHT22;9418;52.694;13.294;2022-09-29T10:46:46;12.20;99.90
18577;DHT22;9418;52.694;13.294;2022-09-29T10:49:14;12.20;99.90
18577;DHT22;9418;52.694;13.294;2022-09-29T10:51:51;12.10;99.90
18577;DHT22;9418;52.694;13.294;2022-09-29T10:54:20;12.00;99.90
18577;DHT22;9418;52.694;13.294;2022-09-29T10:56:50;12.00;99.90
18577;DHT22;9418;52.694;13.294;2022-09-29T10:59:17;11.90;99.90
18577;DHT22;9418;52.694;13.294;2022-09-29T11:01:48;11.90;99.90
18577;DHT22;9418;52.694;13.294;2022-09-29T11:04:18;11.90;99.90
18577;DHT22;9418;52.694;13.294;2022-09-29T11:06:49;11.80;99.90
18577;DHT22;9418;52.694;13.294;2022-09-29T11:09:30;11.90;99.90
18577;DHT22;9418;52.694;13.294;2022-09-29T11:12:01;11.80;99.90
18577;DHT22;9418;52.694;13.294;2022-09-29T11:14:29;11.80;99.90
18577;DHT22;9418;52.694;13.294;2022-09-29T11:16:57;11.80;99.90
18577;DHT22;9418;52.694;13.294;2022-09-29T11:19:26;11.80;99.90
18577;DHT22;9418;52.694;13.294;2022-09-29T11:25:09;11.90;99.90
18577;DHT22;9418;52.694;13.294;2022-09-29T11:27:51;11.90;99.90
18577;DHT22;9418;52.694;13.294;2022-09-29T11:30:22;11.90;99.90
18577;DHT22;9418;52.694;13.294;2022-09-29T11:32:58;11.90;99.90
18577;DHT22;9418;52.694;13.294;2022-09-29T11:35:38;11.90;99.90
18577;DHT22;9418;52.694;13.294;2022-09-29T11:41:06;12.00;99.90
18577;DHT22;9418;52.694;13.294;2022-09-29T11:43:43;12.20;99.90
18577;DHT22;9418;52.694;13.294;2022-09-29T11:46:24;12.40;99.90
18577;DHT22;9418;52.694;13.294;2022-09-29T11:49:07;12.50;99.90
18577;DHT22;9418;52.694;13.294;2022-09-29T11:51:50;12.50;46.40
18577;DHT22;9418;52.694;13.294;2022-09-29T11:54:33;12.50;31.90
18577;DHT22;9418;52.694;13.294;2022-09-29T11:57:06;12.50;26.60
18577;DHT22;9418;52.694;13.294;2022-09-29T11:59:51;12.50;32.10
18577;DHT22;9418;52.694;13.294;2022-09-29T12:02:32;12.50;27.80
18577;DHT22;9418;52.694;13.294;2022-09-29T12:05:10;12.50;29.30
18577;DHT22;9418;52.694;13.294;2022-09-29T12:07:48;12.40;29.20
18577;DHT22;9418;52.694;13.294;2022-09-29T12:10:35;12.40;35.10
18577;DHT22;9418;52.694;13.294;2022-09-29T12:13:17;12.40;27.60
18577;DHT22;9418;52.694;13.294;2022-09-29T12:15:51;12.40;22.20
18577;DHT22;9418;52.694;13.294;2022-09-29T12:18:21;12.40;96.00
18577;DHT22;9418;52.694;13.294;2022-09-29T12:20:52;12.40;99.90
18577;DHT22;9418;52.694;13.294;2022-09-29T12:23:21;12.40;99.90
18577;DHT22;9418;52.694;13.294;2022-09-29T12:25:57;12.40;99.90
18577;DHT22;9418;52.694;13.294;2022-09-29T12:28:29;12.50;99.90
18577;DHT22;9418;52.694;13.294;2022-09-29T12:31:00;12.50;99.90
18577;DHT22;9418;52.694;13.294;2022-09-29T12:33:32;12.40;99.90
18577;DHT22;9418;52.694;13.294;2022-09-29T12:36:10;12.50;99.90
18577;DHT22;9418;52.694;13.294;2022-09-29T12:38:55;12.50;99.90
18577;DHT22;9418;52.694;13.294;2022-09-29T12:41:31;12.50;38.40
18577;DHT22;9418;52.694;13.294;2022-09-29T12:44:10;12.60;42.90
18577;DHT22;9418;52.694;13.294;2022-09-29T12:46:44;12.60;29.70
18577;DHT22;9418;52.694;13.294;2022-09-29T12:49:18;12.60;95.90
18577;DHT22;9418;52.694;13.294;2022-09-29T12:51:48;12.70;99.90
18577;DHT22;9418;52.694;13.294;2022-09-29T12:54:19;12.70;99.90
18577;DHT22;9418;52.694;13.294;2022-09-29T12:56:53;12.60;99.90
18577;DHT22;9418;52.694;13.294;2022-09-29T12:59:30;12.60;99.90
18577;DHT22;9418;52.694;13.294;2022-09-29T13:01:58;12.70;20.40
18577;DHT22;9418;52.694;13.294;2022-09-29T13:04:48;12.70;96.30
18577;DHT22;9418;52.694;13.294;2022-09-29T13:07:32;12.70;24.60
18577;DHT22;9418;52.694;13.294;2022-09-29T13:10:42;12.80;25.30
18577;DHT22;9418;52.694;13.294;2022-09-29T13:13:33;13.00;33.30
18577;DHT22;9418;52.694;13.294;2022-09-29T13:16:10;13.20;41.30
18577;DHT22;9418;52.694;13.294;2022-09-29T13:21:37;13.40;71.60
18577;DHT22;9418;52.694;13.294;2022-09-29T13:24:28;13.50;90.60
18577;DHT22;9418;52.694;13.294;2022-09-29T13:27:18;13.70;39.30
18577;DHT22;9418;52.694;13.294;2022-09-29T13:29:54;13.60;99.50
18577;DHT22;9418;52.694;13.294;2022-09-29T13:32:22;13.80;90.30
18577;DHT22;9418;52.694;13.294;2022-09-29T13:34:52;14.20;94.70
18577;DHT22;9418;52.694;13.294;2022-09-29T13:37:21;14.50;99.90
18577;DHT22;9418;52.694;13.294;2022-09-29T13:39:53;15.10;99.90
18577;DHT22;9418;52.694;13.294;2022-09-29T13:42:38;15.10;99.90
18577;DHT22;9418;52.694;13.294;2022-09-29T13:51:42;14.10;99.90
18577;DHT22;9418;52.694;13.294;2022-09-29T13:54:37;14.00;99.90
18577;DHT22;9418;52.694;13.294;2022-09-29T13:57:20;14.00;99.90
18577;DHT22;9418;52.694;13.294;2022-09-29T14:00:22;14.00;99.90
18577;DHT22;9418;52.694;13.294;2022-09-29T14:03:24;14.00;99.90
18577;DHT22;9418;52.694;13.294;2022-09-29T14:06:04;13.90;99.90
18577;DHT22;9418;52.694;13.294;2022-09-29T14:08:37;13.70;99.90
18577;DHT22;9418;52.694;13.294;2022-09-29T14:11:15;13.60;99.90
18577;DHT22;9418;52.694;13.294;2022-09-29T14:13:51;13.60;99.90
18577;DHT22;9418;52.694;13.294;2022-09-29T14:16:45;13.50;99.90
18577;DHT22;9418;52.694;13.294;2022-09-29T14:19:28;13.50;99.90
18577;DHT22;9418;52.694;13.294;2022-09-29T14:22:00;13.60;99.90
18577;DHT22;9418;52.694;13.294;2022-09-29T14:24:44;13.50;99.90
18577;DHT22;9418;52.694;13.294;2022-09-29T14:27:23;13.60;99.90
18577;DHT22;9418;52.694;13.294;2022-09-29T14:29:57;13.60;99.90
18577;DHT22;9418;52.694;13.294;2022-09-29T14:32:36;13.50;99.90
18577;DHT22;9418;52.694;13.294;2022-09-29T14:35:14;13.50;99.90
18577;DHT22;9418;52.694;13.294;2022-09-29T14:37:41;13.40;99.90
18577;DHT22;9418;52.694;13.294;2022-09-29T14:40:08;13.40;99.90
18577;DHT22;9418;52.694;13.294;2022-09-29T14:43:04;13.40;99.90
18577;DHT22;9418;52.694;13.294;2022-09-29T14:45:36;13.40;99.90
18577;DHT22;9418;52.694;13.294;2022-09-29T14:48:29;13.40;99.90
18577;DHT22;9418;52.694;13.294;2022-09-29T14:51:21;13.30;99.90
18577;DHT22;9418;52.694;13.294;2022-09-29T14:54:14;13.30;97.50
18577;DHT22;9418;52.694;13.294;2022-09-29T14:56:51;13.30;88.10
18577;DHT22;9418;52.694;13.294;2022-09-29T14:59:30;13.20;84.40
18577;DHT22;9418;52.694;13.294;2022-09-29T15:02:15;13.20;76.30
18577;DHT22;9418;52.694;13.294;2022-09-29T15:04:45;13.20;70.50
18577;DHT22;9418;52.694;13.294;2022-09-29T15:07:14;13.20;69.40
18577;DHT22;9418;52.694;13.294;2022-09-29T15:09:44;13.20;68.20
18577;DHT22;9418;52.694;13.294;2022-09-29T15:12:14;13.20;81.80
18577;DHT22;9418;52.694;13.294;2022-09-29T15:14:41;13.20;75.70
18577;DHT22;9418;52.694;13.294;2022-09-29T15:17:15;13.30;88.50
18577;DHT22;9418;52.694;13.294;2022-09-29T15:19:49;13.30;81.00
18577;DHT22;9418;52.694;13.294;2022-09-29T15:25:22;13.40;88.20
18577;DHT22;9418;52.694;13.294;2022-09-29T15:27:56;13.30;86.10
18577;DHT22;9418;52.694;13.294;2022-09-29T15:30:24;13.40;81.80
18577;DHT22;9418;52.694;13.294;2022-09-29T15:32:52;13.40;67.20
18577;DHT22;9418;52.694;13.294;2022-09-29T15:35:22;13.40;82.60
18577;DHT22;9418;52.694;13.294;2022-09-29T15:38:05;13.30;85.20
18577;DHT22;9418;52.694;13.294;2022-09-29T15:40:39;13.30;61.70
18577;DHT22;9418;52.694;13.294;2022-09-29T15:43:18;13.30;66.50
18577;DHT22;9418;52.694;13.294;2022-09-29T15:45:52;13.20;58.20
18577;DHT22;9418;52.694;13.294;2022-09-29T15:48:19;13.10;89.30
18577;DHT22;9418;52.694;13.294;2022-09-29T15:50:47;13.00;89.50
18577;DHT22;9418;52.694;13.294;2022-09-29T15:53:15;13.00;85.30
18577;DHT22;9418;52.694;13.294;2022-09-29T15:55:43;12.90;88.80
18577;DHT22;9418;52.694;13.294;2022-09-29T15:58:34;12.80;76.60
18577;DHT22;9418;52.694;13.294;2022-09-29T16:01:03;12.80;72.60
18577;DHT22;9418;52.694;13.294;2022-09-29T16:03:36;12.70;46.00
18577;DHT22;9418;52.694;13.294;2022-09-29T16:06:13;12.60;46.10
18577;DHT22;9418;52.694;13.294;2022-09-29T16:08:45;12.50;42.00
18577;DHT22;9418;52.694;13.294;2022-09-29T16:11:19;12.40;25.40
18577;DHT22;9418;52.694;13.294;2022-09-29T16:13:50;12.30;28.20
18577;DHT22;9418;52.694;13.294;2022-09-29T16:16:25;12.20;95.30
18577;DHT22;9418;52.694;13.294;2022-09-29T16:18:53;12.10;99.90
18577;DHT22;9418;52.694;13.294;2022-09-29T16:21:31;12.00;99.90
18577;DHT22;9418;52.694;13.294;2022-09-29T16:24:05;12.00;99.90
18577;DHT22;9418;52.694;13.294;2022-09-29T16:26:34;11.90;99.90
18577;DHT22;9418;52.694;13.294;2022-09-29T16:29:22;11.80;99.90
18577;DHT22;9418;52.694;13.294;2022-09-29T16:31:49;11.60;99.90